createdAt,value
2023-03-26T00:00:17.842Z,7.39
2023-03-26T00:02:19.398Z,7.39
2023-03-26T00:04:21.884Z,7.37
2023-03-26T00:06:29.269Z,7.38
2023-03-26T00:08:31.011Z,7.37
2023-03-26T00:10:33.187Z,7.40
2023-03-26T00:12:34.688Z,7.40
2023-03-26T00:14:36.247Z,7.39
2023-03-26T00:16:37.720Z,7.37
2023-03-26T00:18:40.491Z,7.34
2023-03-26T00:20:41.977Z,7.34
2023-03-26T00:22:43.423Z,7.37
2023-03-26T00:24:47.434Z,7.36
2023-03-26T00:26:53.493Z,7.35
2023-03-26T00:28:55.111Z,7.36
2023-03-26T00:31:02.901Z,7.37
2023-03-26T00:33:04.515Z,7.38
2023-03-26T00:35:06.475Z,7.36
2023-03-26T00:37:08.866Z,7.35
2023-03-26T00:39:10.358Z,7.35
2023-03-26T00:41:25.468Z,7.33
2023-03-26T00:43:27.008Z,7.35
2023-03-26T00:45:28.906Z,7.31
2023-03-26T00:47:30.909Z,7.30
2023-03-26T00:49:32.532Z,7.27
2023-03-26T00:51:34.691Z,7.24
2023-03-26T00:53:38.850Z,7.22
2023-03-26T00:55:41.664Z,7.18
2023-03-26T00:57:46.032Z,7.16
2023-03-26T00:59:50.848Z,7.16
2023-03-26T01:01:55.007Z,7.11
2023-03-26T01:04:08.839Z,7.05
2023-03-26T01:06:27.811Z,7.01
2023-03-26T01:08:44.970Z,6.96
2023-03-26T01:10:50.915Z,6.93
2023-03-26T01:12:52.632Z,6.92
2023-03-26T01:15:00.653Z,6.88
2023-03-26T01:17:04.549Z,6.86
2023-03-26T01:19:21.186Z,6.85
2023-03-26T01:21:29.945Z,6.83
2023-03-26T01:23:37.479Z,6.81
2023-03-26T01:25:46.114Z,6.81
2023-03-26T01:27:54.226Z,6.80
2023-03-26T01:30:17.784Z,6.78
2023-03-26T01:32:47.589Z,6.77
2023-03-26T01:35:04.642Z,6.77
2023-03-26T01:37:16.408Z,6.74
2023-03-26T01:39:40.459Z,6.74
2023-03-26T01:41:48.975Z,6.75
2023-03-26T01:44:23.885Z,6.77
2023-03-26T01:46:26.620Z,6.78
2023-03-26T01:48:31.663Z,6.80
2023-03-26T01:50:33.935Z,6.82
2023-03-26T01:52:35.683Z,6.84
2023-03-26T01:54:37.164Z,6.88
2023-03-26T01:57:09.874Z,6.92
2023-03-26T01:59:20.357Z,6.95
2023-03-26T02:01:36.632Z,6.98
2023-03-26T02:03:51.142Z,7.01
2023-03-26T02:06:15.710Z,7.05
2023-03-26T02:08:35.550Z,7.07
2023-03-26T02:10:44.136Z,7.09
2023-03-26T02:12:46.039Z,7.09
2023-03-26T02:14:47.971Z,7.11
2023-03-26T02:18:55.580Z,7.10
2023-03-26T02:20:57.094Z,7.08
2023-03-26T02:22:59.798Z,7.07
2023-03-26T02:25:01.389Z,7.06
2023-03-26T02:27:03.090Z,7.05
2023-03-26T02:29:04.790Z,7.05
2023-03-26T02:31:09.704Z,7.04
2023-03-26T02:33:15.261Z,7.04
2023-03-26T02:35:16.887Z,7.02
2023-03-26T02:37:19.126Z,7.00
2023-03-26T02:39:20.880Z,7.00
2023-03-26T02:41:22.424Z,6.99
2023-03-26T02:43:23.995Z,6.97
2023-03-26T02:45:25.597Z,6.98
2023-03-26T02:47:27.208Z,6.98
2023-03-26T02:49:28.963Z,6.98
2023-03-26T02:51:35.254Z,6.98
2023-03-26T02:53:37.582Z,6.98
2023-03-26T02:55:39.376Z,6.97
2023-03-26T02:57:41.285Z,6.98
2023-03-26T02:59:42.782Z,6.98
2023-03-26T03:01:44.244Z,6.97
2023-03-26T03:03:47.495Z,6.98
2023-03-26T03:05:48.934Z,6.98
2023-03-26T03:07:50.373Z,6.98
2023-03-26T03:09:51.848Z,6.98
2023-03-26T03:11:53.363Z,6.98
2023-03-26T03:13:54.834Z,7.01
2023-03-26T03:15:56.647Z,7.01
2023-03-26T03:17:58.355Z,6.99
2023-03-26T03:20:00.330Z,6.99
2023-03-26T03:22:01.831Z,7.01
2023-03-26T03:24:03.732Z,7.00
2023-03-26T03:26:06.732Z,6.99
2023-03-26T03:28:08.949Z,7.00
2023-03-26T03:30:12.775Z,7.01
2023-03-26T03:32:14.223Z,7.01
2023-03-26T03:34:15.909Z,7.02
2023-03-26T03:36:22.051Z,7.01
2023-03-26T03:38:23.551Z,7.02
2023-03-26T03:40:25.589Z,7.01
2023-03-26T03:42:29.920Z,7.00
2023-03-26T03:44:31.379Z,7.01
2023-03-26T03:46:32.886Z,6.99
2023-03-26T03:48:38.134Z,6.96
2023-03-26T03:50:39.617Z,6.94
2023-03-26T03:52:41.073Z,6.95
2023-03-26T03:54:42.541Z,6.92
2023-03-26T03:56:45.745Z,6.94
2023-03-26T03:58:47.444Z,6.92
2023-03-26T04:00:52.739Z,6.92
2023-03-26T04:02:54.590Z,6.90
2023-03-26T04:05:00.025Z,6.89
2023-03-26T04:07:01.579Z,6.89
2023-03-26T04:09:03.060Z,6.88
2023-03-26T04:11:04.975Z,6.86
2023-03-26T04:13:06.443Z,6.85
2023-03-26T04:15:08.071Z,6.85
2023-03-26T04:17:10.222Z,6.83
2023-03-26T04:19:11.699Z,6.82
2023-03-26T04:21:15.885Z,6.81
2023-03-26T04:23:18.800Z,6.78
2023-03-26T04:25:21.383Z,6.79
2023-03-26T04:27:28.436Z,6.77
2023-03-26T04:29:34.610Z,6.77
2023-03-26T04:31:36.340Z,6.75
2023-03-26T04:33:41.436Z,6.73
2023-03-26T04:35:44.744Z,6.72
2023-03-26T04:37:46.903Z,6.71
2023-03-26T04:39:48.361Z,6.68
2023-03-26T04:41:49.838Z,6.67
2023-03-26T04:43:51.283Z,6.67
2023-03-26T04:45:53.796Z,6.66
2023-03-26T04:47:55.951Z,6.65
2023-03-26T04:49:57.534Z,6.63
2023-03-26T04:51:59.730Z,6.62
2023-03-26T04:54:02.605Z,6.59
2023-03-26T04:56:13.497Z,6.56
2023-03-26T04:58:15.661Z,6.54
2023-03-26T05:00:19.023Z,6.51
2023-03-26T05:02:20.618Z,6.51
2023-03-26T05:04:22.232Z,6.50
2023-03-26T05:06:25.938Z,6.46
2023-03-26T05:08:28.853Z,6.46
2023-03-26T05:10:30.385Z,6.41
2023-03-26T05:12:31.861Z,6.39
2023-03-26T05:14:33.536Z,6.38
2023-03-26T05:16:36.179Z,6.35
2023-03-26T05:18:37.704Z,6.35
2023-03-26T05:20:39.304Z,6.36
2023-03-26T05:22:40.861Z,6.34
2023-03-26T05:24:42.323Z,6.33
2023-03-26T05:26:43.845Z,6.34
2023-03-26T05:28:45.489Z,6.35
2023-03-26T05:30:47.029Z,6.34
2023-03-26T05:32:49.500Z,6.33
2023-03-26T05:34:51.022Z,6.35
2023-03-26T05:36:53.004Z,6.35
2023-03-26T05:38:54.559Z,6.33
2023-03-26T05:41:00.818Z,6.32
2023-03-26T05:43:02.888Z,6.32
2023-03-26T05:45:06.355Z,6.31
2023-03-26T05:47:07.825Z,6.34
2023-03-26T05:49:09.296Z,6.34
2023-03-26T05:51:12.337Z,6.35
2023-03-26T05:53:13.827Z,6.36
2023-03-26T05:55:16.056Z,6.38
2023-03-26T05:57:18.718Z,6.39
2023-03-26T05:59:20.275Z,6.40
2023-03-26T06:01:22.650Z,6.41
2023-03-26T06:03:25.048Z,6.39
2023-03-26T06:05:26.882Z,6.38
2023-03-26T06:07:28.670Z,6.37
2023-03-26T06:09:30.138Z,6.40
2023-03-26T06:11:32.116Z,6.44
2023-03-26T06:13:34.054Z,6.43
2023-03-26T06:15:35.624Z,6.44
2023-03-26T06:17:37.151Z,6.46
2023-03-26T06:19:38.784Z,6.46
2023-03-26T06:21:40.356Z,6.46
2023-03-26T06:23:41.818Z,6.48
2023-03-26T06:25:45.565Z,6.49
2023-03-26T06:27:47.115Z,6.50
2023-03-26T06:29:49.062Z,6.52
2023-03-26T06:31:50.634Z,6.54
2023-03-26T06:33:53.210Z,6.55
2023-03-26T06:35:54.813Z,6.55
2023-03-26T06:37:57.120Z,6.59
2023-03-26T06:39:58.624Z,6.61
2023-03-26T06:42:00.258Z,6.60
2023-03-26T06:44:01.745Z,6.59
2023-03-26T06:46:04.110Z,6.59
2023-03-26T06:48:06.142Z,6.62
2023-03-26T06:50:08.438Z,6.61
2023-03-26T06:52:09.959Z,6.62
2023-03-26T06:54:11.422Z,6.63
2023-03-26T06:56:12.932Z,6.64
2023-03-26T06:58:14.787Z,6.68
2023-03-26T07:00:17.167Z,6.65
2023-03-26T07:02:18.676Z,6.65
2023-03-26T07:04:20.372Z,6.65
2023-03-26T07:06:21.919Z,6.64
2023-03-26T07:08:25.186Z,6.61
2023-03-26T07:10:27.811Z,6.61
2023-03-26T07:12:29.320Z,6.64
2023-03-26T07:14:32.632Z,6.68
2023-03-26T07:16:34.169Z,6.66
2023-03-26T07:18:35.727Z,6.59
2023-03-26T07:20:37.728Z,6.64
2023-03-26T07:22:39.598Z,6.66
2023-03-26T07:24:41.462Z,6.64
2023-03-26T07:26:55.809Z,6.61
2023-03-26T07:29:08.155Z,6.60
2023-03-26T07:31:27.156Z,6.60
2023-03-26T07:33:37.708Z,6.59
2023-03-26T07:35:48.630Z,6.60
2023-03-26T07:38:01.160Z,6.62
2023-03-26T07:40:31.916Z,6.58
2023-03-26T07:42:58.862Z,6.50
2023-03-26T07:45:26.021Z,6.48
2023-03-26T07:47:31.539Z,6.53
2023-03-26T07:49:34.058Z,6.59
2023-03-26T07:51:35.874Z,6.64
2023-03-26T07:53:37.554Z,6.60
2023-03-26T07:55:50.075Z,6.59
2023-03-26T07:57:54.623Z,6.56
2023-03-26T08:00:08.305Z,6.55
2023-03-26T08:02:28.114Z,6.55
2023-03-26T08:04:41.722Z,6.58
2023-03-26T08:06:59.491Z,6.59
2023-03-26T08:09:16.006Z,6.60
2023-03-26T08:11:26.503Z,6.63
2023-03-26T08:13:44.427Z,6.71
2023-03-26T08:15:58.237Z,6.80
2023-03-26T08:18:15.991Z,6.91
2023-03-26T08:20:31.044Z,6.90
2023-03-26T08:22:41.070Z,6.92
2023-03-26T08:24:54.968Z,7.02
2023-03-26T08:27:06.699Z,7.11
2023-03-26T08:29:32.795Z,7.20
2023-03-26T08:31:40.019Z,7.29
2023-03-26T08:33:41.607Z,7.31
2023-03-26T08:35:44.161Z,7.37
2023-03-26T08:37:45.669Z,7.31
2023-03-26T08:39:47.176Z,7.24
2023-03-26T08:42:18.847Z,7.19
2023-03-26T08:44:26.341Z,7.29
2023-03-26T08:46:46.447Z,7.32
2023-03-26T08:48:47.940Z,7.38
2023-03-26T08:51:15.280Z,7.40
2023-03-26T08:53:34.802Z,7.46
2023-03-26T08:55:48.508Z,7.53
2023-03-26T08:58:11.852Z,7.59
2023-03-26T09:00:51.546Z,7.59
2023-03-26T09:03:19.712Z,7.54
2023-03-26T09:05:33.682Z,7.52
2023-03-26T09:07:59.198Z,7.62
2023-03-26T09:10:41.819Z,7.75
2023-03-26T09:12:52.328Z,7.83
2023-03-26T09:15:24.845Z,7.88
2023-03-26T09:17:29.193Z,7.76
2023-03-26T09:19:30.651Z,7.67
2023-03-26T09:21:43.993Z,7.65
2023-03-26T09:24:03.963Z,7.74
2023-03-26T09:26:29.806Z,7.84
2023-03-26T09:28:52.926Z,7.97
2023-03-26T09:31:03.439Z,8.02
2023-03-26T09:33:11.643Z,7.98
2023-03-26T09:35:16.142Z,7.89
2023-03-26T09:37:23.764Z,7.75
2023-03-26T09:39:31.299Z,7.75
2023-03-26T09:41:43.697Z,7.74
2023-03-26T09:43:48.877Z,7.69
2023-03-26T09:46:02.585Z,7.73
2023-03-26T09:48:16.193Z,7.59
2023-03-26T09:50:42.378Z,7.58
2023-03-26T09:52:52.231Z,7.64
2023-03-26T09:55:31.177Z,7.73
2023-03-26T09:57:45.358Z,7.76
2023-03-26T10:00:18.226Z,7.81
2023-03-26T10:02:57.402Z,7.70
2023-03-26T10:05:04.661Z,7.75
2023-03-26T10:07:34.847Z,7.91
2023-03-26T10:10:01.294Z,7.94
2023-03-26T10:12:31.496Z,7.91
2023-03-26T10:14:33.226Z,7.75
2023-03-26T10:16:51.348Z,7.88
2023-03-26T10:19:30.630Z,8.12
2023-03-26T10:21:43.443Z,8.30
2023-03-26T10:23:50.922Z,8.40
2023-03-26T10:26:06.067Z,8.50
2023-03-26T10:28:29.505Z,8.45
2023-03-26T10:31:00.303Z,8.36
2023-03-26T10:33:08.051Z,8.39
2023-03-26T10:35:15.388Z,8.35
2023-03-26T10:37:32.500Z,8.18
2023-03-26T10:39:42.278Z,8.06
2023-03-26T10:41:59.255Z,8.03
2023-03-26T10:44:21.834Z,8.16
2023-03-26T10:46:57.367Z,8.44
2023-03-26T10:49:01.063Z,8.66
2023-03-26T10:51:08.795Z,8.79
2023-03-26T10:53:29.952Z,8.67
2023-03-26T10:55:41.578Z,8.76
2023-03-26T10:57:43.051Z,8.94
2023-03-26T10:59:44.560Z,8.91
2023-03-26T11:01:55.109Z,9.02
2023-03-26T11:04:08.167Z,9.17
2023-03-26T11:06:30.222Z,9.31
2023-03-26T11:08:37.469Z,9.40
2023-03-26T11:11:00.598Z,9.47
2023-03-26T11:13:34.030Z,9.57
2023-03-26T11:15:53.230Z,9.62
2023-03-26T11:18:04.027Z,9.66
2023-03-26T11:20:20.989Z,9.74
2023-03-26T11:22:53.134Z,9.75
2023-03-26T11:25:20.781Z,9.74
2023-03-26T11:27:49.185Z,9.73
2023-03-26T11:30:03.048Z,9.77
2023-03-26T11:32:15.644Z,9.75
2023-03-26T11:34:22.398Z,9.88
2023-03-26T11:36:29.794Z,9.93
2023-03-26T11:38:44.531Z,9.91
2023-03-26T11:40:51.040Z,9.91
2023-03-26T11:42:59.135Z,9.91
2023-03-26T11:45:08.180Z,9.85
2023-03-26T11:47:15.273Z,9.83
2023-03-26T11:49:18.943Z,9.70
2023-03-26T11:51:27.543Z,9.64
2023-03-26T11:53:34.534Z,9.67
2023-03-26T11:55:36.523Z,9.92
2023-03-26T11:57:43.142Z,10.02
2023-03-26T12:00:17.888Z,9.92
2023-03-26T12:02:25.616Z,9.61
2023-03-26T12:04:38.684Z,9.72
2023-03-26T12:06:51.839Z,9.87
2023-03-26T12:08:53.286Z,9.92
2023-03-26T12:11:09.368Z,9.73
2023-03-26T12:13:36.515Z,9.76
2023-03-26T12:15:43.683Z,10.25
2023-03-26T12:17:47.154Z,10.95
2023-03-26T12:19:48.629Z,11.55
2023-03-26T12:21:52.828Z,12.11
2023-03-26T12:24:00.882Z,12.67
2023-03-26T12:26:14.858Z,12.73
2023-03-26T12:28:19.163Z,12.45
2023-03-26T12:30:22.197Z,12.33
2023-03-26T12:32:32.574Z,12.46
2023-03-26T12:34:44.878Z,12.75
2023-03-26T12:36:55.443Z,13.16
2023-03-26T12:39:17.086Z,13.51
2023-03-26T12:44:42.121Z,13.54
2023-03-26T12:44:54.824Z,13.02
2023-03-26T12:47:59.420Z,12.83
2023-03-26T12:48:45.436Z,12.62
2023-03-26T12:51:08.802Z,12.36
2023-03-26T12:53:34.052Z,12.68
2023-03-26T12:55:38.506Z,12.81
2023-03-26T12:58:13.273Z,12.87
2023-03-26T13:00:33.873Z,12.70
2023-03-26T13:02:48.835Z,12.55
2023-03-26T13:05:05.657Z,12.12
2023-03-26T13:07:34.221Z,12.26
2023-03-26T13:09:53.252Z,12.50
2023-03-26T13:12:35.849Z,12.45
2023-03-26T13:14:52.500Z,12.08
2023-03-26T13:17:21.004Z,11.81
2023-03-26T13:19:31.244Z,11.84
2023-03-26T13:22:00.140Z,11.84
2023-03-26T13:24:25.756Z,11.78
2023-03-26T13:26:37.206Z,11.73
2023-03-26T13:28:52.577Z,11.79
2023-03-26T13:31:16.989Z,11.77
2023-03-26T13:33:24.300Z,11.60
2023-03-26T13:35:49.869Z,11.53
2023-03-26T13:38:00.517Z,11.56
2023-03-26T13:40:22.187Z,11.81
2023-03-26T13:42:50.978Z,11.73
2023-03-26T13:45:04.382Z,11.85
2023-03-26T13:47:38.250Z,11.89
2023-03-26T13:49:55.425Z,11.87
2023-03-26T13:51:59.424Z,11.92
2023-03-26T13:54:23.947Z,11.83
2023-03-26T13:56:36.412Z,11.46
2023-03-26T13:58:59.860Z,10.93
2023-03-26T14:01:22.388Z,10.47
2023-03-26T14:03:56.285Z,10.48
2023-03-26T14:06:03.685Z,10.69
2023-03-26T14:08:22.578Z,10.85
2023-03-26T14:10:30.643Z,10.99
2023-03-26T14:12:59.886Z,11.04
2023-03-26T14:15:04.728Z,11.01
2023-03-26T14:17:21.306Z,10.96
2023-03-26T14:19:33.674Z,10.87
2023-03-26T14:21:54.826Z,10.88
2023-03-26T14:24:12.783Z,10.56
2023-03-26T14:26:28.858Z,10.53
2023-03-26T14:28:48.006Z,10.63
2023-03-26T14:31:23.167Z,10.66
2023-03-26T14:33:49.663Z,10.86
2023-03-26T14:35:54.235Z,10.83
2023-03-26T14:37:57.402Z,10.77
2023-03-26T14:40:16.955Z,10.62
2023-03-26T14:42:53.412Z,10.45
2023-03-26T14:45:21.178Z,10.48
2023-03-26T14:47:24.929Z,10.31
2023-03-26T14:49:46.384Z,10.22
2023-03-26T14:51:55.060Z,10.33
2023-03-26T14:54:02.720Z,10.41
2023-03-26T14:56:48.773Z,10.42
2023-03-26T14:59:11.728Z,10.32
2023-03-26T15:01:25.419Z,10.33
2023-03-26T15:04:00.753Z,10.26
2023-03-26T15:06:21.118Z,10.46
2023-03-26T15:08:58.383Z,10.55
2023-03-26T15:11:44.949Z,10.67
2023-03-26T15:14:19.776Z,10.80
2023-03-26T15:16:32.749Z,10.80
2023-03-26T15:18:58.876Z,10.75
2023-03-26T15:21:00.273Z,10.78
2023-03-26T15:23:20.012Z,10.70
2023-03-26T15:25:52.336Z,10.48
2023-03-26T15:28:17.452Z,10.19
2023-03-26T15:30:53.872Z,10.23
2023-03-26T15:33:22.696Z,10.23
2023-03-26T15:35:41.428Z,9.89
2023-03-26T15:38:18.013Z,9.79
2023-03-26T15:40:38.172Z,9.69
2023-03-26T15:42:57.979Z,9.88
2023-03-26T15:45:22.348Z,10.08
2023-03-26T15:47:36.088Z,10.21
2023-03-26T15:49:43.950Z,10.32
2023-03-26T15:52:06.326Z,10.26
2023-03-26T15:54:28.895Z,10.23
2023-03-26T15:56:57.924Z,10.39
2023-03-26T15:59:17.967Z,10.43
2023-03-26T16:01:50.757Z,10.08
2023-03-26T16:04:11.676Z,9.81
2023-03-26T16:06:30.846Z,9.71
2023-03-26T16:08:54.765Z,9.54
2023-03-26T16:10:59.033Z,9.43
2023-03-26T16:13:19.425Z,9.24
2023-03-26T16:15:33.296Z,9.34
2023-03-26T16:18:05.941Z,9.62
2023-03-26T16:20:23.301Z,9.59
2023-03-26T16:22:52.051Z,9.54
2023-03-26T16:25:27.249Z,9.28
2023-03-26T16:27:33.972Z,9.07
2023-03-26T16:30:00.194Z,9.11
2023-03-26T16:32:11.239Z,9.21
2023-03-26T16:34:27.129Z,9.22
2023-03-26T16:36:34.631Z,9.01
2023-03-26T16:39:04.979Z,8.79
2023-03-26T16:41:17.629Z,8.67
2023-03-26T16:43:53.096Z,8.63
2023-03-26T16:46:00.444Z,8.41
2023-03-26T16:48:05.184Z,8.13
2023-03-26T16:50:26.002Z,8.02
2023-03-26T16:52:42.791Z,8.01
2023-03-26T16:55:08.596Z,7.83
2023-03-26T16:57:23.022Z,7.90
2023-03-26T17:00:05.279Z,7.69
2023-03-26T17:02:26.614Z,7.49
2023-03-26T17:04:30.571Z,7.44
2023-03-26T17:07:08.750Z,7.41
2023-03-26T17:09:24.640Z,7.22
2023-03-26T17:11:36.178Z,7.10
2023-03-26T17:13:40.807Z,6.99
2023-03-26T17:16:04.781Z,6.88
2023-03-26T17:18:18.214Z,6.86
2023-03-26T17:20:40.847Z,6.91
2023-03-26T17:22:44.815Z,6.96
2023-03-26T17:24:58.514Z,6.97
2023-03-26T17:27:20.309Z,6.92
2023-03-26T17:29:32.264Z,6.87
2023-03-26T17:31:51.013Z,6.87
2023-03-26T17:33:53.527Z,6.96
2023-03-26T17:36:39.875Z,6.92
2023-03-26T17:38:47.274Z,6.80
2023-03-26T17:40:50.941Z,6.77
2023-03-26T17:43:07.769Z,6.56
2023-03-26T17:45:17.666Z,6.65
2023-03-26T17:47:21.855Z,6.59
2023-03-26T17:49:31.887Z,6.47
2023-03-26T17:51:58.788Z,6.48
2023-03-26T17:54:00.915Z,6.54
2023-03-26T17:56:06.513Z,6.51
2023-03-26T17:58:23.538Z,6.43
2023-03-26T18:00:51.429Z,6.35
2023-03-26T18:02:57.803Z,6.07
2023-03-26T18:05:00.853Z,6.17
2023-03-26T18:07:25.278Z,6.17
2023-03-26T18:09:57.817Z,6.15
2023-03-26T18:12:08.031Z,6.03
2023-03-26T18:14:15.484Z,6.05
2023-03-26T18:16:20.993Z,5.86
2023-03-26T18:18:31.333Z,5.95
2023-03-26T18:20:37.142Z,5.92
2023-03-26T18:22:38.856Z,5.95
2023-03-26T18:24:42.167Z,5.89
2023-03-26T18:26:46.823Z,5.84
2023-03-26T18:28:54.302Z,5.76
2023-03-26T18:30:56.019Z,5.79
2023-03-26T18:33:03.132Z,5.82
2023-03-26T18:35:20.270Z,5.73
2023-03-26T18:37:31.790Z,5.54
2023-03-26T18:39:33.428Z,5.60
2023-03-26T18:41:43.031Z,5.59
2023-03-26T18:43:44.881Z,5.50
2023-03-26T18:45:50.532Z,5.40
2023-03-26T18:48:10.017Z,5.35
2023-03-26T18:50:16.998Z,5.39
2023-03-26T18:52:20.304Z,5.40
2023-03-26T18:54:21.934Z,5.36
2023-03-26T18:56:37.153Z,5.26
2023-03-26T18:58:40.000Z,5.29
2023-03-26T19:00:42.704Z,5.16
2023-03-26T19:02:46.115Z,5.13
2023-03-26T19:04:49.529Z,5.17
2023-03-26T19:06:55.052Z,5.17
2023-03-26T19:08:57.958Z,5.15
2023-03-26T19:11:04.796Z,5.07
2023-03-26T19:13:13.252Z,5.08
2023-03-26T19:15:17.043Z,5.13
2023-03-26T19:17:18.726Z,4.98
2023-03-26T19:19:23.110Z,5.04
2023-03-26T19:21:25.429Z,4.98
2023-03-26T19:23:32.243Z,4.90
2023-03-26T19:25:42.069Z,4.87
2023-03-26T19:27:43.875Z,4.91
2023-03-26T19:29:46.699Z,4.88
2023-03-26T19:31:52.436Z,4.91
2023-03-26T19:33:59.285Z,4.91
2023-03-26T19:36:12.893Z,4.94
2023-03-26T19:38:27.374Z,4.91
2023-03-26T19:40:33.676Z,4.87
2023-03-26T19:42:43.240Z,4.87
2023-03-26T19:44:46.146Z,4.87
2023-03-26T19:46:53.624Z,4.82
2023-03-26T19:48:57.614Z,4.82
2023-03-26T19:51:05.363Z,4.74
2023-03-26T19:53:17.759Z,4.71
2023-03-26T19:55:24.247Z,4.67
2023-03-26T19:57:25.729Z,4.67
2023-03-26T19:59:27.265Z,4.70
2023-03-26T20:01:30.673Z,4.70
2023-03-26T20:03:42.223Z,4.67
2023-03-26T20:05:43.747Z,4.57
2023-03-26T20:07:45.564Z,4.45
2023-03-26T20:09:47.021Z,4.54
2023-03-26T20:11:54.215Z,4.52
2023-03-26T20:13:55.677Z,4.50
2023-03-26T20:16:22.996Z,4.51
2023-03-26T20:18:25.654Z,4.52
2023-03-26T20:20:27.617Z,4.53
2023-03-26T20:22:29.363Z,4.46
2023-03-26T20:24:32.455Z,4.46
2023-03-26T20:26:34.012Z,4.44
2023-03-26T20:28:42.449Z,4.41
2023-03-26T20:30:51.026Z,4.38
2023-03-26T20:33:12.184Z,4.39
2023-03-26T20:35:19.314Z,4.31
2023-03-26T20:37:38.214Z,4.35
2023-03-26T20:39:39.725Z,4.34
2023-03-26T20:41:47.136Z,4.35
2023-03-26T20:43:52.238Z,4.31
2023-03-26T20:45:54.177Z,4.27
2023-03-26T20:47:55.921Z,4.25
2023-03-26T20:49:57.443Z,4.19
2023-03-26T20:52:00.099Z,4.19
2023-03-26T20:54:01.963Z,4.19
2023-03-26T20:56:03.698Z,4.21
2023-03-26T20:58:05.145Z,4.20
2023-03-26T21:00:37.297Z,4.21
2023-03-26T21:02:40.586Z,4.20
2023-03-26T21:04:43.818Z,4.13
2023-03-26T21:06:45.751Z,4.14
2023-03-26T21:08:47.440Z,4.13
2023-03-26T21:10:49.763Z,4.14
2023-03-26T21:13:10.626Z,4.02
2023-03-26T21:15:20.836Z,4.07
2023-03-26T21:17:25.134Z,4.00
2023-03-26T21:19:27.280Z,4.05
2023-03-26T21:22:00.208Z,4.05
2023-03-26T21:24:20.729Z,4.06
2023-03-26T21:26:27.820Z,3.96
2023-03-26T21:28:41.992Z,3.97
2023-03-26T21:30:44.424Z,3.96
2023-03-26T21:32:46.504Z,3.96
2023-03-26T21:34:58.058Z,3.93
2023-03-26T21:37:01.588Z,3.88
2023-03-26T21:39:04.829Z,3.92
2023-03-26T21:41:06.787Z,3.87
2023-03-26T21:43:11.632Z,3.85
2023-03-26T21:45:13.704Z,3.88
2023-03-26T21:47:15.372Z,3.83
2023-03-26T21:49:17.770Z,3.87
2023-03-26T21:51:19.548Z,3.82
2023-03-26T21:53:22.354Z,3.82
2023-03-26T21:55:24.521Z,3.83
2023-03-26T21:57:52.338Z,3.83
2023-03-26T21:59:53.796Z,3.80
2023-03-26T22:02:04.874Z,3.80
2023-03-26T22:04:15.021Z,3.80
2023-03-26T22:06:42.965Z,3.77
2023-03-26T22:08:44.894Z,3.72
2023-03-26T22:10:47.496Z,3.68
2023-03-26T22:12:49.574Z,3.71
2023-03-26T22:14:52.354Z,3.68
2023-03-26T22:16:53.895Z,3.70
2023-03-26T22:18:55.395Z,3.71
2023-03-26T22:20:59.115Z,3.64
2023-03-26T22:23:01.826Z,3.67
2023-03-26T22:25:03.411Z,3.69
2023-03-26T22:27:04.882Z,3.68
2023-03-26T22:29:06.511Z,3.64
2023-03-26T22:31:09.043Z,3.66
2023-03-26T22:33:12.055Z,3.66
2023-03-26T22:35:14.408Z,3.62
2023-03-26T22:37:16.210Z,3.60
2023-03-26T22:39:18.272Z,3.58
2023-03-26T22:41:19.825Z,3.56
2023-03-26T22:43:21.285Z,3.55
2023-03-26T22:45:23.527Z,3.53
2023-03-26T22:47:25.012Z,3.54
2023-03-26T22:49:27.442Z,3.53
2023-03-26T22:51:29.782Z,3.53
2023-03-26T22:53:31.671Z,3.49
2023-03-26T22:55:33.572Z,3.49
2023-03-26T22:57:35.065Z,3.51
2023-03-26T22:59:36.720Z,3.48
2023-03-26T23:01:38.228Z,3.44
2023-03-26T23:03:39.938Z,3.41
2023-03-26T23:05:41.398Z,3.44
2023-03-26T23:07:43.527Z,3.44
2023-03-26T23:09:45.657Z,3.43
2023-03-26T23:11:47.303Z,3.41
2023-03-26T23:13:49.477Z,3.38
2023-03-26T23:15:55.402Z,3.36
2023-03-26T23:17:58.695Z,3.36
2023-03-26T23:20:00.667Z,3.33
2023-03-26T23:22:02.207Z,3.29
2023-03-26T23:24:04.621Z,3.33
2023-03-26T23:26:06.922Z,3.28
2023-03-26T23:28:08.454Z,3.26
2023-03-26T23:30:10.971Z,3.23
2023-03-26T23:32:23.372Z,3.23
2023-03-26T23:34:26.312Z,3.22
2023-03-26T23:36:27.830Z,3.21
2023-03-26T23:38:44.169Z,3.20
2023-03-26T23:40:57.296Z,3.15
2023-03-26T23:42:58.978Z,3.20
2023-03-26T23:45:01.111Z,3.15
2023-03-26T23:47:02.598Z,3.08
2023-03-26T23:49:04.094Z,3.03
2023-03-26T23:51:06.811Z,2.96
2023-03-26T23:53:08.509Z,2.91
2023-03-26T23:55:10.049Z,2.89
2023-03-26T23:57:11.832Z,2.86
2023-03-26T23:59:13.708Z,2.83
